Time;durP1;ratioP1;P1;durP2;ratioP2;P2;SDS_P1;SDS_P2;PMS_P1;PMS_P2;Temp;Humidity;BMP_temperature;BMP_pressure;BME280_temperature;BME280_humidity;BME280_pressure;Samples;Min_cycle;Max_cycle;Signal;HPM_P1;HPM_P2
2021/06/16 00:02:23;;;;;;;7.82;4.32;;;;;;;;;;4995290;28;20022;-70
2021/06/16 00:04:49;;;;;;;8.38;4.22;;;;;;;;;;4995749;28;20423;-64
2021/06/16 00:07:16;;;;;;;8.68;4.47;;;;;;;;;;4995352;28;20100;-65
2021/06/16 00:09:42;;;;;;;7.40;3.85;;;;;;;;;;4994816;28;20036;-64
2021/06/16 00:12:08;;;;;;;6.63;4.07;;;;;;;;;;4995626;28;20392;-68
2021/06/16 00:14:35;;;;;;;6.85;4.30;;;;;;;;;;4995203;28;20019;-64
2021/06/16 00:17:01;;;;;;;10.77;4.18;;;;;;;;;;4995353;28;20022;-65
2021/06/16 00:19:29;;;;;;;10.18;4.18;;;;;;;;;;4995250;28;20480;-67
2021/06/16 00:21:55;;;;;;;7.03;5.28;;;;;;;;;;4994574;28;20037;-70
2021/06/16 00:24:21;;;;;;;8.45;5.10;;;;;;;;;;4994894;28;20030;-70
2021/06/16 00:26:50;;;;;;;7.97;4.63;;;;;;;;;;4995317;28;20411;-68
2021/06/16 00:29:16;;;;;;;9.02;4.22;;;;;;;;;;4994393;28;20026;-66
2021/06/16 00:31:42;;;;;;;10.20;4.30;;;;;;;;;;4995115;28;20042;-64
2021/06/16 00:34:09;;;;;;;8.65;4.40;;;;;;;;;;4994951;28;20022;-64
2021/06/16 00:36:35;;;;;;;9.05;4.32;;;;;;;;;;4994789;28;20061;-64
2021/06/16 00:39:01;;;;;;;9.15;4.32;;;;;;;;;;4994432;28;20488;-68
2021/06/16 00:41:27;;;;;;;5.72;4.30;;;;;;;;;;4995545;28;20040;-68
2021/06/16 00:43:55;;;;;;;7.50;4.28;;;;;;;;;;5002558;28;20042;-66
2021/06/16 00:46:22;;;;;;;9.10;4.47;;;;;;;;;;5014754;28;20036;-66
2021/06/16 00:48:48;;;;;;;7.18;4.35;;;;;;;;;;5014244;28;20471;-70
2021/06/16 00:51:14;;;;;;;9.70;4.53;;;;;;;;;;5013500;28;20050;-67
2021/06/16 00:53:40;;;;;;;8.20;4.50;;;;;;;;;;5014226;28;20057;-66
2021/06/16 00:56:06;;;;;;;8.23;4.70;;;;;;;;;;5014510;28;20025;-70
2021/06/16 00:58:32;;;;;;;7.78;4.60;;;;;;;;;;5014033;28;20470;-65
2021/06/16 01:01:04;;;;;;;7.07;4.13;;;;;;;;;;5013399;28;20057;-69
2021/06/16 01:03:30;;;;;;;10.05;4.40;;;;;;;;;;5013968;28;20026;-65
2021/06/16 01:06:02;;;;;;;8.23;4.47;;;;;;;;;;5013113;28;20026;-64
2021/06/16 01:08:35;;;;;;;8.68;4.32;;;;;;;;;;5001001;28;20032;-63
2021/06/16 01:11:05;;;;;;;9.15;4.20;;;;;;;;;;5013852;28;20050;-63
2021/06/16 01:13:49;;;;;;;7.20;4.07;;;;;;;;;;5013448;28;20058;-64
2021/06/16 01:16:21;;;;;;;7.50;4.10;;;;;;;;;;5013522;28;20036;-66
2021/06/16 01:18:48;;;;;;;9.10;4.35;;;;;;;;;;5014664;28;20025;-69
2021/06/16 01:21:15;;;;;;;8.98;4.25;;;;;;;;;;5001962;28;20110;-65
2021/06/16 01:23:47;;;;;;;15.38;4.72;;;;;;;;;;5013097;28;20479;-65
2021/06/16 01:26:22;;;;;;;9.27;4.45;;;;;;;;;;5014274;28;20041;-67
2021/06/16 01:28:49;;;;;;;6.75;3.90;;;;;;;;;;5013064;28;20093;-63
2021/06/16 01:31:16;;;;;;;8.13;4.30;;;;;;;;;;5013275;28;20042;-66
2021/06/16 01:33:43;;;;;;;8.02;4.30;;;;;;;;;;5012915;28;20028;-64
2021/06/16 01:36:09;;;;;;;8.45;4.60;;;;;;;;;;5001367;28;20109;-65
2021/06/16 01:38:36;;;;;;;11.02;4.60;;;;;;;;;;5013660;28;20053;-65
2021/06/16 01:41:02;;;;;;;10.15;4.20;;;;;;;;;;5013508;28;20018;-63
2021/06/16 01:43:29;;;;;;;8.32;4.53;;;;;;;;;;5012711;28;20049;-65
2021/06/16 01:45:56;;;;;;;8.43;4.70;;;;;;;;;;5013379;28;20706;-69
2021/06/16 01:48:23;;;;;;;6.25;4.25;;;;;;;;;;5009569;28;20049;-64
2021/06/16 01:50:51;;;;;;;9.45;4.00;;;;;;;;;;5004931;28;20027;-69
2021/06/16 01:53:17;;;;;;;5.72;4.03;;;;;;;;;;5013415;28;20541;-65
2021/06/16 01:55:43;;;;;;;7.90;4.30;;;;;;;;;;5012937;28;20067;-64
2021/06/16 01:58:09;;;;;;;9.02;4.57;;;;;;;;;;5012828;28;20121;-64
2021/06/16 02:00:38;;;;;;;9.32;4.40;;;;;;;;;;5012509;28;20021;-69
2021/06/16 02:03:04;;;;;;;10.88;4.32;;;;;;;;;;5013208;28;20079;-64
2021/06/16 02:05:31;;;;;;;6.03;4.22;;;;;;;;;;5012536;28;20107;-64
2021/06/16 02:08:02;;;;;;;11.20;4.45;;;;;;;;;;5012834;28;20032;-66
2021/06/16 02:10:47;;;;;;;8.05;4.15;;;;;;;;;;5012966;28;20160;-68
2021/06/16 02:13:14;;;;;;;5.47;3.97;;;;;;;;;;5010211;28;20030;-67
2021/06/16 02:15:47;;;;;;;6.75;4.00;;;;;;;;;;5012047;28;20049;-64
2021/06/16 02:18:14;;;;;;;7.43;4.30;;;;;;;;;;5012576;28;20060;-69
2021/06/16 02:20:40;;;;;;;19.70;14.00;;;;;;;;;;5013143;28;20282;-69
2021/06/16 02:23:06;;;;;;;16.42;13.50;;;;;;;;;;5012034;28;20088;-64
2021/06/16 02:25:33;;;;;;;16.25;8.23;;;;;;;;;;5012211;28;20034;-64
2021/06/16 02:27:59;;;;;;;8.95;5.60;;;;;;;;;;5012582;28;20030;-65
2021/06/16 02:30:27;;;;;;;9.50;4.93;;;;;;;;;;5011241;28;20114;-68
2021/06/16 02:32:53;;;;;;;7.05;4.72;;;;;;;;;;5012163;28;20161;-64
2021/06/16 02:35:20;;;;;;;9.52;4.60;;;;;;;;;;5012278;28;20018;-68
2021/06/16 02:37:51;;;;;;;7.00;4.60;;;;;;;;;;5012564;28;20026;-70
2021/06/16 02:40:18;;;;;;;7.05;4.20;;;;;;;;;;5012109;28;20057;-63
2021/06/16 02:42:46;;;;;;;7.63;4.45;;;;;;;;;;5012481;28;20480;-63
2021/06/16 02:45:13;;;;;;;9.43;4.75;;;;;;;;;;5011967;28;20131;-68
2021/06/16 02:47:42;;;;;;;8.55;4.82;;;;;;;;;;5011311;28;20053;-66
2021/06/16 02:50:09;;;;;;;8.30;4.93;;;;;;;;;;5012336;28;20526;-69
2021/06/16 02:52:36;;;;;;;7.13;4.90;;;;;;;;;;5012390;28;20113;-63
2021/06/16 02:55:04;;;;;;;7.57;4.75;;;;;;;;;;5012766;28;20017;-65
2021/06/16 02:57:32;;;;;;;7.38;4.20;;;;;;;;;;5011905;28;20037;-64
2021/06/16 02:59:59;;;;;;;9.60;4.72;;;;;;;;;;5007250;28;20379;-69
2021/06/16 03:02:27;;;;;;;7.43;4.32;;;;;;;;;;5012045;28;20037;-64
2021/06/16 03:04:53;;;;;;;6.13;4.20;;;;;;;;;;5012415;28;20348;-65
2021/06/16 03:07:20;;;;;;;9.35;4.60;;;;;;;;;;5012400;28;20034;-63
2021/06/16 03:09:47;;;;;;;7.80;4.65;;;;;;;;;;5011566;28;20053;-68
2021/06/16 03:12:14;;;;;;;7.05;5.03;;;;;;;;;;5013526;28;20073;-66
2021/06/16 03:14:41;;;;;;;6.75;4.45;;;;;;;;;;5012496;28;20044;-63
2021/06/16 03:17:07;;;;;;;8.70;4.75;;;;;;;;;;5011831;28;20029;-63
2021/06/16 03:19:34;;;;;;;9.63;4.85;;;;;;;;;;5008675;28;20034;-66
2021/06/16 03:22:03;;;;;;;10.40;4.97;;;;;;;;;;5011834;28;20392;-63
2021/06/16 03:24:29;;;;;;;8.60;5.03;;;;;;;;;;5011936;28;20032;-65
2021/06/16 03:26:56;;;;;;;11.25;4.90;;;;;;;;;;5012175;28;20108;-67
2021/06/16 03:29:22;;;;;;;9.23;4.85;;;;;;;;;;5015844;28;20528;-64
2021/06/16 03:31:48;;;;;;;8.98;4.80;;;;;;;;;;5014889;28;20488;-70
2021/06/16 03:34:15;;;;;;;8.27;4.55;;;;;;;;;;5016233;28;20037;-69
2021/06/16 03:36:43;;;;;;;6.57;4.38;;;;;;;;;;5008238;28;20069;-65
2021/06/16 03:39:09;;;;;;;10.18;4.95;;;;;;;;;;5011933;28;20038;-62
2021/06/16 03:41:36;;;;;;;10.68;4.82;;;;;;;;;;5015250;28;20028;-65
2021/06/16 03:44:02;;;;;;;12.15;5.50;;;;;;;;;;5015262;28;20514;-65
2021/06/16 03:46:30;;;;;;;9.75;4.95;;;;;;;;;;5015741;28;20033;-66
2021/06/16 03:48:59;;;;;;;8.23;4.50;;;;;;;;;;5015456;28;20105;-63
2021/06/16 03:51:28;;;;;;;8.38;4.90;;;;;;;;;;5015538;28;20046;-65
2021/06/16 03:53:55;;;;;;;8.63;5.00;;;;;;;;;;5015145;28;20443;-67
2021/06/16 03:56:25;;;;;;;13.15;5.25;;;;;;;;;;5015926;28;20382;-64
2021/06/16 03:58:52;;;;;;;11.68;5.18;;;;;;;;;;5014936;28;20037;-65
2021/06/16 04:01:18;;;;;;;14.30;5.88;;;;;;;;;;5015590;28;20501;-64
2021/06/16 04:03:44;;;;;;;11.23;5.47;;;;;;;;;;5014859;28;20061;-69
2021/06/16 04:06:12;;;;;;;9.88;5.10;;;;;;;;;;5013055;28;20091;-64
2021/06/16 04:08:39;;;;;;;11.38;5.63;;;;;;;;;;5014092;28;20026;-68
2021/06/16 04:11:05;;;;;;;11.80;5.57;;;;;;;;;;5015229;28;20038;-67
2021/06/16 04:13:31;;;;;;;14.68;6.00;;;;;;;;;;5013570;28;20088;-67
2021/06/16 04:15:58;;;;;;;10.90;5.32;;;;;;;;;;5013340;28;20084;-68
2021/06/16 04:18:24;;;;;;;11.00;5.50;;;;;;;;;;5014601;28;20097;-65
2021/06/16 04:20:50;;;;;;;13.40;5.80;;;;;;;;;;5014253;28;20026;-66
2021/06/16 04:23:16;;;;;;;12.93;5.63;;;;;;;;;;5009292;28;20030;-66
2021/06/16 04:25:42;;;;;;;12.65;5.53;;;;;;;;;;5014900;28;20026;-63
2021/06/16 04:28:08;;;;;;;13.27;5.63;;;;;;;;;;5015078;28;20100;-63
2021/06/16 04:30:34;;;;;;;9.45;5.30;;;;;;;;;;5008997;28;20058;-69
2021/06/16 04:33:00;;;;;;;13.15;5.47;;;;;;;;;;5011408;28;20030;-64
2021/06/16 04:35:26;;;;;;;13.30;5.38;;;;;;;;;;5014031;28;20026;-68
2021/06/16 04:37:52;;;;;;;10.07;5.10;;;;;;;;;;5013747;28;20383;-66
2021/06/16 04:40:19;;;;;;;8.40;5.18;;;;;;;;;;5013074;28;20506;-66
2021/06/16 04:42:45;;;;;;;14.18;5.57;;;;;;;;;;5014273;28;20037;-70
2021/06/16 04:45:11;;;;;;;8.30;5.50;;;;;;;;;;5014823;28;20419;-64
2021/06/16 04:47:37;;;;;;;12.82;5.82;;;;;;;;;;5013383;28;20021;-67
2021/06/16 04:50:05;;;;;;;12.25;5.43;;;;;;;;;;5012239;28;20594;-68
2021/06/16 04:52:31;;;;;;;9.98;5.70;;;;;;;;;;5012140;28;20032;-64
2021/06/16 04:54:57;;;;;;;14.52;5.78;;;;;;;;;;5010300;28;20463;-65
2021/06/16 04:57:23;;;;;;;12.18;6.03;;;;;;;;;;5012732;28;20037;-63
2021/06/16 04:59:49;;;;;;;14.27;6.43;;;;;;;;;;5014187;28;20080;-67
2021/06/16 05:02:15;;;;;;;11.48;5.85;;;;;;;;;;5013305;28;20026;-72
2021/06/16 05:04:41;;;;;;;11.52;5.32;;;;;;;;;;5014150;28;20022;-71
2021/06/16 05:07:08;;;;;;;8.20;5.13;;;;;;;;;;5014473;28;20018;-69
2021/06/16 05:09:34;;;;;;;12.50;5.80;;;;;;;;;;5012822;28;20025;-70
2021/06/16 05:12:00;;;;;;;9.82;5.53;;;;;;;;;;5011847;28;20038;-74
2021/06/16 05:14:26;;;;;;;12.43;5.45;;;;;;;;;;5013664;28;20026;-79
2021/06/16 05:16:54;;;;;;;12.02;5.95;;;;;;;;;;5012973;28;20084;-68
2021/06/16 05:19:22;;;;;;;12.82;5.90;;;;;;;;;;5007115;28;20036;-70
2021/06/16 05:21:49;;;;;;;10.15;5.60;;;;;;;;;;5012499;28;20502;-68
2021/06/16 05:24:15;;;;;;;9.52;5.55;;;;;;;;;;5012246;28;20030;-70
2021/06/16 05:26:42;;;;;;;7.60;5.18;;;;;;;;;;5013720;28;20403;-68
2021/06/16 05:29:08;;;;;;;11.45;5.60;;;;;;;;;;5010978;28;20024;-68
2021/06/16 05:31:34;;;;;;;10.73;5.50;;;;;;;;;;5008357;28;20128;-69
2021/06/16 05:34:01;;;;;;;9.30;5.43;;;;;;;;;;4996029;28;20029;-69
2021/06/16 05:36:27;;;;;;;10.45;5.50;;;;;;;;;;5012971;28;20502;-68
2021/06/16 05:38:53;;;;;;;8.82;5.40;;;;;;;;;;5012811;28;20475;-68
2021/06/16 05:41:19;;;;;;;9.85;5.28;;;;;;;;;;5013681;28;20033;-67
2021/06/16 05:43:45;;;;;;;12.27;5.78;;;;;;;;;;5012962;28;20053;-69
2021/06/16 05:46:11;;;;;;;11.18;5.20;;;;;;;;;;5011863;28;20069;-68
2021/06/16 05:48:38;;;;;;;7.95;4.88;;;;;;;;;;5014093;28;20017;-68
2021/06/16 05:51:04;;;;;;;13.82;7.40;;;;;;;;;;5004472;28;20042;-70
2021/06/16 05:53:30;;;;;;;10.85;5.30;;;;;;;;;;5010859;28;20496;-68
2021/06/16 05:55:56;;;;;;;12.60;5.50;;;;;;;;;;5008596;28;20035;-70
2021/06/16 05:58:22;;;;;;;9.75;5.32;;;;;;;;;;4992838;28;20017;-67
2021/06/16 06:00:49;;;;;;;9.10;5.13;;;;;;;;;;5003995;28;20542;-71
2021/06/16 06:03:15;;;;;;;10.85;5.40;;;;;;;;;;5012187;28;20022;-70
2021/06/16 06:05:41;;;;;;;11.35;5.70;;;;;;;;;;5011164;28;20078;-68
2021/06/16 06:08:07;;;;;;;9.32;5.28;;;;;;;;;;5012011;28;20038;-64
2021/06/16 06:10:35;;;;;;;7.95;5.03;;;;;;;;;;5011021;28;20446;-67
2021/06/16 06:13:02;;;;;;;8.82;4.72;;;;;;;;;;5013767;28;20415;-66
2021/06/16 06:15:28;;;;;;;9.85;5.28;;;;;;;;;;5012237;28;20033;-69
2021/06/16 06:17:54;;;;;;;15.13;6.47;;;;;;;;;;5011802;28;20044;-68
2021/06/16 06:20:20;;;;;;;11.00;5.50;;;;;;;;;;4998451;28;20054;-82
2021/06/16 06:22:46;;;;;;;9.98;5.10;;;;;;;;;;4989393;28;20025;-84
2021/06/16 06:25:13;;;;;;;9.43;5.15;;;;;;;;;;4994270;28;20042;-75
2021/06/16 06:27:39;;;;;;;7.47;4.75;;;;;;;;;;5006475;28;20026;-78
2021/06/16 06:30:06;;;;;;;7.78;4.70;;;;;;;;;;5011470;28;20029;-68
2021/06/16 06:32:32;;;;;;;9.45;5.47;;;;;;;;;;5006257;28;20486;-67
2021/06/16 06:34:58;;;;;;;9.70;4.90;;;;;;;;;;5011525;28;20036;-69
2021/06/16 06:37:25;;;;;;;10.75;4.75;;;;;;;;;;5001749;28;20034;-84
2021/06/16 06:39:51;;;;;;;8.60;5.03;;;;;;;;;;5016640;28;20029;-79
2021/06/16 06:42:17;;;;;;;11.27;4.78;;;;;;;;;;5001949;28;20034;-84
2021/06/16 06:44:43;;;;;;;9.20;4.63;;;;;;;;;;5006408;28;20045;-82
2021/06/16 06:47:10;;;;;;;10.27;5.05;;;;;;;;;;5011312;28;20061;-82
2021/06/16 06:49:36;;;;;;;8.40;4.55;;;;;;;;;;5010132;28;20029;-84
2021/06/16 06:52:02;;;;;;;9.85;4.55;;;;;;;;;;5009340;28;20137;-84
2021/06/16 06:54:28;;;;;;;10.05;5.00;;;;;;;;;;4985866;28;20120;-84
2021/06/16 06:56:54;;;;;;;6.22;4.32;;;;;;;;;;5010262;28;20494;-81
2021/06/16 06:59:20;;;;;;;10.57;4.85;;;;;;;;;;5010355;28;20407;-76
2021/06/16 07:01:46;;;;;;;14.35;5.28;;;;;;;;;;5009729;28;20026;-85
2021/06/16 07:04:12;;;;;;;10.13;4.90;;;;;;;;;;5007351;28;20034;-70
2021/06/16 07:06:38;;;;;;;8.30;4.60;;;;;;;;;;5004868;28;20018;-75
2021/06/16 07:09:05;;;;;;;8.48;4.68;;;;;;;;;;5006280;28;20022;-64
2021/06/16 07:11:31;;;;;;;11.80;4.82;;;;;;;;;;5006598;28;20092;-65
2021/06/16 07:13:57;;;;;;;11.55;4.75;;;;;;;;;;5006824;28;20475;-67
2021/06/16 07:16:23;;;;;;;12.32;4.80;;;;;;;;;;5005111;28;20040;-65
2021/06/16 07:18:51;;;;;;;11.23;4.55;;;;;;;;;;5005043;28;20068;-80
2021/06/16 07:21:17;;;;;;;10.40;4.40;;;;;;;;;;5001037;28;20037;-73
2021/06/16 07:23:43;;;;;;;8.93;4.55;;;;;;;;;;5009874;28;20018;-78
2021/06/16 07:26:10;;;;;;;7.43;4.50;;;;;;;;;;5006496;28;20117;-78
2021/06/16 07:28:36;;;;;;;7.75;4.50;;;;;;;;;;5004875;28;20026;-74
2021/06/16 07:31:02;;;;;;;8.13;4.65;;;;;;;;;;4992655;28;20030;-72
2021/06/16 07:33:30;;;;;;;10.23;4.47;;;;;;;;;;5010813;28;20034;-78
2021/06/16 07:35:57;;;;;;;8.43;4.32;;;;;;;;;;5009963;28;20088;-77
2021/06/16 07:38:23;;;;;;;14.20;4.40;;;;;;;;;;5009273;28;20448;-76
2021/06/16 07:40:49;;;;;;;8.15;4.20;;;;;;;;;;5010261;28;20034;-78
2021/06/16 07:43:15;;;;;;;8.45;4.72;;;;;;;;;;5007930;28;20092;-79
2021/06/16 07:45:42;;;;;;;8.77;4.40;;;;;;;;;;4994258;28;20069;-69
2021/06/16 07:48:08;;;;;;;9.75;4.93;;;;;;;;;;4991634;28;20029;-70
2021/06/16 07:50:36;;;;;;;8.00;4.65;;;;;;;;;;4991312;28;20031;-69
2021/06/16 07:53:04;;;;;;;7.28;4.25;;;;;;;;;;4991342;28;20566;-67
2021/06/16 07:55:30;;;;;;;9.63;4.15;;;;;;;;;;4990270;28;20042;-69
2021/06/16 07:57:56;;;;;;;8.13;4.20;;;;;;;;;;4991013;28;20030;-68
2021/06/16 08:00:23;;;;;;;9.38;4.40;;;;;;;;;;4991371;28;20558;-61
2021/06/16 08:02:49;;;;;;;12.40;4.15;;;;;;;;;;4995145;28;20030;-63
2021/06/16 08:05:15;;;;;;;9.63;4.18;;;;;;;;;;4993000;28;20031;-64
2021/06/16 08:07:42;;;;;;;7.40;4.10;;;;;;;;;;4991741;28;20377;-58
2021/06/16 08:10:08;;;;;;;10.38;3.88;;;;;;;;;;4992219;28;20080;-88
2021/06/16 08:12:34;;;;;;;6.88;3.80;;;;;;;;;;4979727;28;20049;-79
2021/06/16 08:15:00;;;;;;;5.78;3.58;;;;;;;;;;4991990;28;20031;-79
2021/06/16 08:17:26;;;;;;;6.95;3.78;;;;;;;;;;4997397;28;20049;-74
2021/06/16 08:19:52;;;;;;;8.27;4.15;;;;;;;;;;4982456;28;20117;-84
2021/06/16 08:22:18;;;;;;;16.73;4.28;;;;;;;;;;4994935;28;20101;-69
2021/06/16 08:24:45;;;;;;;6.47;3.78;;;;;;;;;;4993138;28;20026;-69
2021/06/16 08:27:11;;;;;;;7.32;3.20;;;;;;;;;;4994277;28;20097;-68
2021/06/16 08:29:38;;;;;;;9.35;4.05;;;;;;;;;;4993213;28;20407;-70
2021/06/16 08:32:04;;;;;;;19.38;5.38;;;;;;;;;;4997258;28;20038;-69
2021/06/16 08:34:30;;;;;;;9.63;4.18;;;;;;;;;;5000011;28;20027;-70
2021/06/16 08:36:56;;;;;;;8.18;4.10;;;;;;;;;;4996137;28;20053;-70
2021/06/16 08:39:23;;;;;;;9.13;3.88;;;;;;;;;;4998932;28;20174;-70
2021/06/16 08:41:50;;;;;;;8.95;3.60;;;;;;;;;;4994992;28;20027;-71
2021/06/16 08:44:16;;;;;;;6.93;3.35;;;;;;;;;;4995072;28;20054;-71
2021/06/16 08:46:42;;;;;;;8.63;3.30;;;;;;;;;;4993554;28;20054;-70
2021/06/16 08:49:08;;;;;;;8.63;3.10;;;;;;;;;;4992353;28;20084;-71
2021/06/16 08:51:35;;;;;;;4.55;3.40;;;;;;;;;;4993955;28;20038;-79
2021/06/16 08:54:02;;;;;;;6.30;3.45;;;;;;;;;;4978036;28;20184;-77
2021/06/16 08:56:28;;;;;;;6.65;3.70;;;;;;;;;;4997739;28;20031;-76
2021/06/16 08:58:54;;;;;;;5.88;3.10;;;;;;;;;;4995775;28;20018;-79
2021/06/16 09:01:21;;;;;;;7.80;3.17;;;;;;;;;;5002205;28;20030;-75
2021/06/16 09:03:47;;;;;;;5.20;3.28;;;;;;;;;;4994737;28;20034;-75
2021/06/16 09:06:15;;;;;;;6.18;3.38;;;;;;;;;;4993362;28;20034;-69
2021/06/16 09:08:57;;;;;;;5.97;3.65;;;;;;;;;;5001730;28;20042;-69
2021/06/16 09:11:23;;;;;;;7.18;3.38;;;;;;;;;;4993336;28;20061;-70
2021/06/16 09:13:50;;;;;;;8.07;3.95;;;;;;;;;;4989777;28;20050;-63
2021/06/16 09:16:26;;;;;;;4.35;3.13;;;;;;;;;;4995305;28;20030;-82
2021/06/16 09:18:52;;;;;;;5.03;3.35;;;;;;;;;;4972446;28;20027;-82
2021/06/16 09:21:31;;;;;;;9.38;3.50;;;;;;;;;;4992062;28;20101;-78
2021/06/16 09:23:57;;;;;;;5.43;3.35;;;;;;;;;;4993405;28;20479;-80
2021/06/16 09:26:23;;;;;;;6.00;3.60;;;;;;;;;;4996037;28;20064;-72
2021/06/16 09:28:51;;;;;;;7.20;3.40;;;;;;;;;;4990741;28;20026;-72
2021/06/16 09:31:18;;;;;;;7.22;3.67;;;;;;;;;;4992546;28;20033;-79
2021/06/16 09:33:44;;;;;;;6.15;3.28;;;;;;;;;;4995781;28;20034;-77
2021/06/16 09:36:12;;;;;;;6.25;3.80;;;;;;;;;;4993212;28;20022;-77
2021/06/16 09:38:38;;;;;;;7.28;3.53;;;;;;;;;;4991288;28;20034;-72
2021/06/16 09:41:09;;;;;;;6.82;2.95;;;;;;;;;;4995736;28;20026;-73
2021/06/16 09:43:36;;;;;;;5.40;3.13;;;;;;;;;;4998559;28;20054;-75
2021/06/16 09:46:03;;;;;;;7.18;3.50;;;;;;;;;;5009467;28;20083;-66
2021/06/16 09:48:29;;;;;;;9.82;3.63;;;;;;;;;;5012825;28;20026;-64
2021/06/16 09:51:28;;;;;;;11.73;3.97;;;;;;;;;;5012908;28;20030;-66
2021/06/16 09:53:54;;;;;;;9.63;3.40;;;;;;;;;;4942625;28;20118;-64
2021/06/16 09:56:20;;;;;;;11.10;7.80;;;;;;;;;;4953850;28;20031;-63
2021/06/16 09:58:46;;;;;;;6.47;3.45;;;;;;;;;;4954051;28;20693;-63
2021/06/16 10:01:12;;;;;;;6.85;3.17;;;;;;;;;;4951810;28;20081;-64
2021/06/16 10:03:40;;;;;;;5.38;3.20;;;;;;;;;;4950692;28;20402;-78
2021/06/16 10:06:09;;;;;;;7.57;3.38;;;;;;;;;;4952539;28;20019;-76
2021/06/16 10:08:36;;;;;;;5.10;3.10;;;;;;;;;;4955198;28;20154;-73
2021/06/16 10:11:03;;;;;;;7.63;3.20;;;;;;;;;;4941089;28;20596;-74
2021/06/16 10:13:30;;;;;;;8.20;3.00;;;;;;;;;;4946777;28;20035;-65
2021/06/16 10:15:58;;;;;;;7.03;3.17;;;;;;;;;;4951857;28;20039;-67
2021/06/16 10:18:25;;;;;;;5.13;3.05;;;;;;;;;;4952469;28;20030;-67
2021/06/16 10:20:52;;;;;;;7.00;3.10;;;;;;;;;;4950065;28;20500;-66
2021/06/16 10:23:18;;;;;;;5.80;2.85;;;;;;;;;;4949666;28;20047;-67
2021/06/16 10:25:44;;;;;;;5.97;3.20;;;;;;;;;;4950822;28;20516;-66
2021/06/16 10:28:11;;;;;;;7.38;3.38;;;;;;;;;;4953428;28;20062;-81
2021/06/16 10:30:42;;;;;;;5.20;3.03;;;;;;;;;;5006652;28;20046;-73
2021/06/16 10:33:27;;;;;;;7.68;3.50;;;;;;;;;;5011264;28;20021;-69
2021/06/16 10:36:06;;;;;;;5.55;2.65;;;;;;;;;;5011665;28;20017;-66
2021/06/16 10:38:32;;;;;;;5.80;2.67;;;;;;;;;;5016733;28;20037;-66
2021/06/16 10:40:59;;;;;;;8.95;3.10;;;;;;;;;;5010406;28;20022;-63
2021/06/16 10:43:28;;;;;;;4.55;2.83;;;;;;;;;;5006226;28;20057;-80
2021/06/16 10:46:21;;;;;;;5.00;2.60;;;;;;;;;;4988068;28;20026;-77
2021/06/16 10:48:54;;;;;;;7.22;3.13;;;;;;;;;;4988940;28;20192;-77
2021/06/16 10:51:20;;;;;;;;;;;;;;;;;;4991087;28;20113;-75
2021/06/16 10:54:19;;;;;;;11.60;3.10;;;;;;;;;;4991332;28;20391;-65
2021/06/16 10:56:46;;;;;;;11.23;3.40;;;;;;;;;;4936460;29;20044;-65
2021/06/16 10:59:13;;;;;;;16.27;3.20;;;;;;;;;;4931327;29;20374;-68
2021/06/16 11:01:51;;;;;;;14.77;3.33;;;;;;;;;;4930964;29;20536;-69
2021/06/16 11:04:31;;;;;;;7.15;2.97;;;;;;;;;;4925741;29;20502;-70
2021/06/16 11:06:57;;;;;;;6.75;3.05;;;;;;;;;;4931109;29;20498;-72
2021/06/16 11:09:43;;;;;;;3.72;2.70;;;;;;;;;;4930544;29;20390;-72
2021/06/16 11:12:09;;;;;;;4.75;3.10;;;;;;;;;;4929282;28;20111;-76
2021/06/16 11:14:36;;;;;;;7.50;3.20;;;;;;;;;;4928043;29;20107;-77
2021/06/16 11:17:02;;;;;;;6.57;3.22;;;;;;;;;;4926033;29;20028;-82
2021/06/16 11:19:37;;;;;;;4.38;2.70;;;;;;;;;;4928270;29;20806;-82
2021/06/16 11:22:06;;;;;;;6.75;3.30;;;;;;;;;;4928536;29;20107;-74
2021/06/16 11:24:50;;;;;;;6.18;3.00;;;;;;;;;;4930370;29;20035;-84
2021/06/16 11:27:35;;;;;;;5.90;3.00;;;;;;;;;;4928485;29;20079;-79
2021/06/16 11:30:03;;;;;;;10.65;3.22;;;;;;;;;;4926268;29;20059;-79
2021/06/16 11:32:29;;;;;;;4.80;2.83;;;;;;;;;;4959354;28;20082;-74
2021/06/16 11:34:56;;;;;;;6.38;2.90;;;;;;;;;;4990585;28;20109;-79
2021/06/16 11:37:41;;;;;;;9.55;2.90;;;;;;;;;;4992028;28;20028;-84
2021/06/16 11:40:07;;;;;;;5.32;2.70;;;;;;;;;;4985526;28;20049;-66
2021/06/16 11:42:33;;;;;;;7.75;3.40;;;;;;;;;;4991635;28;20034;-67
2021/06/16 11:45:01;;;;;;;10.15;2.90;;;;;;;;;;5009222;28;20046;-69
2021/06/16 11:47:27;;;;;;;5.70;2.97;;;;;;;;;;5010314;28;20050;-69
2021/06/16 11:50:00;;;;;;;4.35;2.70;;;;;;;;;;5014796;28;20085;-69
2021/06/16 11:52:26;;;;;;;4.28;2.88;;;;;;;;;;5011011;28;20049;-69
2021/06/16 11:54:52;;;;;;;3.95;2.50;;;;;;;;;;5013632;28;20084;-67
2021/06/16 11:57:19;;;;;;;5.80;2.63;;;;;;;;;;5010608;28;20036;-69
2021/06/16 11:59:49;;;;;;;6.63;2.60;;;;;;;;;;5013216;28;20026;-68
2021/06/16 12:02:19;;;;;;;13.52;3.28;;;;;;;;;;5013067;28;20042;-80
2021/06/16 12:04:45;;;;;;;44.30;4.53;;;;;;;;;;5009192;28;20121;-75
2021/06/16 12:07:11;;;;;;;18.67;3.63;;;;;;;;;;5013302;28;20075;-74
2021/06/16 12:09:44;;;;;;;22.88;3.58;;;;;;;;;;5013736;28;20124;-65
2021/06/16 12:12:11;;;;;;;6.25;2.60;;;;;;;;;;5013526;28;20502;-64
2021/06/16 12:14:37;;;;;;;10.80;3.05;;;;;;;;;;5012383;28;20037;-65
2021/06/16 12:17:06;;;;;;;6.68;3.13;;;;;;;;;;5012861;28;20030;-70
2021/06/16 12:19:36;;;;;;;5.25;3.00;;;;;;;;;;5012213;28;20388;-74
2021/06/16 12:22:08;;;;;;;6.18;3.13;;;;;;;;;;5013452;28;20075;-67
2021/06/16 12:24:36;;;;;;;6.05;2.80;;;;;;;;;;5013517;28;20045;-72
2021/06/16 12:27:09;;;;;;;7.65;2.78;;;;;;;;;;5013949;28;20442;-73
2021/06/16 12:29:51;;;;;;;4.88;2.47;;;;;;;;;;5009232;28;20029;-67
2021/06/16 12:32:38;;;;;;;3.72;2.50;;;;;;;;;;5009264;28;20053;-67
2021/06/16 12:35:28;;;;;;;4.65;2.65;;;;;;;;;;5012827;28;20105;-66
2021/06/16 12:37:57;;;;;;;5.68;2.70;;;;;;;;;;5009575;28;20480;-65
2021/06/16 12:40:34;;;;;;;7.28;3.08;;;;;;;;;;5013526;28;20141;-67
2021/06/16 12:43:00;;;;;;;7.18;2.90;;;;;;;;;;5007538;28;20045;-66
2021/06/16 12:45:28;;;;;;;5.05;2.78;;;;;;;;;;5018457;28;20026;-68
2021/06/16 12:47:55;;;;;;;4.53;2.60;;;;;;;;;;5010200;28;20026;-62
2021/06/16 12:50:28;;;;;;;5.00;2.70;;;;;;;;;;5014763;28;20375;-66
2021/06/16 12:52:54;;;;;;;22.95;3.30;;;;;;;;;;5012205;28;20505;-67
2021/06/16 12:55:22;;;;;;;4.80;2.40;;;;;;;;;;5003190;28;20310;-66
2021/06/16 12:57:52;;;;;;;5.97;2.50;;;;;;;;;;5003788;28;20099;-64
2021/06/16 13:00:19;;;;;;;3.90;2.50;;;;;;;;;;5012881;28;20085;-68
2021/06/16 13:02:46;;;;;;;4.40;2.70;;;;;;;;;;5012775;28;20476;-61
2021/06/16 13:05:12;;;;;;;13.70;3.08;;;;;;;;;;5015681;28;20061;-62
2021/06/16 13:07:44;;;;;;;8.07;3.20;;;;;;;;;;5014384;28;20376;-62
2021/06/16 13:10:12;;;;;;;7.75;2.90;;;;;;;;;;5007255;28;20029;-62
2021/06/16 13:12:38;;;;;;;4.53;2.60;;;;;;;;;;5013453;28;20434;-61
2021/06/16 13:15:06;;;;;;;3.78;2.53;;;;;;;;;;5014361;28;20022;-62
2021/06/16 13:17:42;;;;;;;4.32;2.72;;;;;;;;;;5011376;28;20038;-62
2021/06/16 13:20:09;;;;;;;6.03;3.00;;;;;;;;;;5014854;28;20097;-69
2021/06/16 13:22:36;;;;;;;15.27;4.25;;;;;;;;;;5012524;28;20026;-68
2021/06/16 13:25:03;;;;;;;7.25;2.70;;;;;;;;;;5011575;28;20380;-68
2021/06/16 13:27:30;;;;;;;8.15;2.72;;;;;;;;;;5012972;28;20029;-65
2021/06/16 13:30:04;;;;;;;17.08;3.58;;;;;;;;;;5013642;28;20030;-66
2021/06/16 13:32:37;;;;;;;7.07;2.78;;;;;;;;;;5012046;28;20109;-63
2021/06/16 13:35:03;;;;;;;;;;;;;;;;;;5012964;28;20510;-62
2021/06/16 13:37:29;;;;;;;5.20;2.53;;;;;;;;;;5013077;28;19956;-68
2021/06/16 13:39:56;;;;;;;4.68;2.67;;;;;;;;;;5013182;28;20525;-64
2021/06/16 13:42:22;;;;;;;6.05;2.72;;;;;;;;;;5011389;28;20029;-66
2021/06/16 13:44:48;;;;;;;5.95;2.60;;;;;;;;;;4997997;28;20463;-63
2021/06/16 13:47:14;;;;;;;4.38;2.67;;;;;;;;;;4993483;28;20026;-65
2021/06/16 13:49:40;;;;;;;7.18;2.83;;;;;;;;;;4993586;28;20022;-69
2021/06/16 13:52:06;;;;;;;5.43;2.88;;;;;;;;;;4990401;28;20038;-69
2021/06/16 13:54:32;;;;;;;6.80;2.60;;;;;;;;;;4991963;28;20026;-67
2021/06/16 13:56:58;;;;;;;7.78;2.65;;;;;;;;;;4994366;28;20026;-65
2021/06/16 13:59:24;;;;;;;8.75;2.95;;;;;;;;;;4993995;28;20022;-64
2021/06/16 14:01:50;;;;;;;5.93;3.03;;;;;;;;;;4992855;28;20036;-69
2021/06/16 14:04:16;;;;;;;8.93;2.88;;;;;;;;;;4992737;28;20034;-62
2021/06/16 14:06:43;;;;;;;6.28;2.60;;;;;;;;;;4995631;28;20031;-64
2021/06/16 14:09:13;;;;;;;12.07;3.15;;;;;;;;;;4993488;28;20030;-63
2021/06/16 14:11:40;;;;;;;5.60;2.60;;;;;;;;;;4991606;28;20032;-69
2021/06/16 14:14:06;;;;;;;10.05;2.90;;;;;;;;;;4993993;28;20488;-69
2021/06/16 14:16:32;;;;;;;10.02;3.00;;;;;;;;;;4992266;28;20815;-69
2021/06/16 14:18:58;;;;;;;5.00;2.75;;;;;;;;;;4992874;28;20025;-67
2021/06/16 14:21:25;;;;;;;6.57;2.45;;;;;;;;;;4992438;28;20109;-64
2021/06/16 14:23:51;;;;;;;9.90;3.00;;;;;;;;;;4990993;28;20510;-67
2021/06/16 14:26:17;;;;;;;8.63;2.90;;;;;;;;;;4992454;28;20396;-68
2021/06/16 14:28:43;;;;;;;7.38;2.70;;;;;;;;;;4988302;28;20030;-67
2021/06/16 14:31:09;;;;;;;6.32;2.63;;;;;;;;;;4992780;28;20034;-66
2021/06/16 14:33:35;;;;;;;80.57;6.35;;;;;;;;;;4991245;28;20018;-67
2021/06/16 14:36:01;;;;;;;7.03;2.88;;;;;;;;;;4996375;28;20026;-67
2021/06/16 14:38:28;;;;;;;6.97;2.60;;;;;;;;;;4992387;28;20075;-68
2021/06/16 14:40:54;;;;;;;10.73;2.90;;;;;;;;;;4988297;28;20370;-63
2021/06/16 14:43:20;;;;;;;14.68;2.80;;;;;;;;;;4989440;28;20049;-66
2021/06/16 14:45:47;;;;;;;4.88;2.53;;;;;;;;;;5012950;28;20079;-68